El Paso, TX (88589)

11:55 PM MDT on July 29, 2015 (GMT -0600)
SanClemente Estates | | Change Station
CLOSE
Current Station
Personal Weather Station
Location: EL PASO, TX
Elevation: 4606 ft
Nearby Weather Stations

Elev 4606 ft 31.82 °N, 106.50 °W | Updated 12 seconds ago

Mostly Cloudy
Mostly Cloudy
72.1 °F
Feels Like 75 °F
N
5.8
Wind Variable Wind from NNE
Gusts 6.3 mph

Today
High -- | Low -- °F
--% Chance of Precip.
Yesterday
High -- | Low -- °F
Precip. -- in
6:19 AM 8:04 PM
Waxing Gibbous, 98% visible
Pressure 29.96 in
Visibility 10.0 miles
Clouds Few 8000 ft
Scattered Clouds 11000 ft
Mostly Cloudy 14000 ft
Heat Index 75 °F
Dew Point 62 °F
Humidity 70%
Rainfall 0.00 in
Snow Depth Not available.
UV 0.0 out of 12
Pollen 2.90 out of 12
Air Quality Not available.
Flu Activity Not available.
METAR KELP 300551Z 35004KT 10SM FEW080 SCT110 BKN140 24/17 A3018 RMK AO2 SLP145 FRQ LTGCGCCIC DSNT W CB DSNT W SHRA DSNT W 60010 T02440172 10311 20239 53015

More Conditions Fewer Conditions

Pressure 29.96 in
Visibility 10.0 miles
Clouds Few 8000 ft
Scattered Clouds 11000 ft
Mostly Cloudy 14000 ft
Heat Index 75 °F
Dew Point 62 °F
Humidity 70%
Rainfall 0.00 in
Snow Depth Not available.
UV 0.0 out of 12
Pollen 2.90 out of 12
Air Quality Not available.
Flu Activity Not available.
METAR KELP 300551Z 35004KT 10SM FEW080 SCT110 BKN140 24/17 A3018 RMK AO2 SLP145 FRQ LTGCGCCIC DSNT W CB DSNT W SHRA DSNT W 60010 T02440172 10311 20239 53015

More Conditions Fewer Conditions

10-Day Weather Forecast

×

Almanac

Astronomy

Jul. 29, 2015 Rise Set
Actual Time
Civil Twilight
Nautical Twilight
Astronomical Twilight
Moon
Length of Visible Light
Length of Day
Tomorrow will be .
, % of the Moon is Illuminated

Today's Extremes

State Highs State Lows

Community

WunderPhotos

Upload Photos

1,842,312 photos uploaded!

WunderBlogs® & News

Nearby

Air Quality

  Air Quality AQ Index Pollutant
Not available.

Snow Depth

Station Depth Elevation

Earthquake Activity

City Distance Mag. Time & Date
Minimum magnitude displayed is 2.5.

Coastal Water Temperatures

Place Temperature

Stations

Nearby Weather Stations

Station Location Temp. Windchill Dew Point Humidity Wind Precip. Elev Updated Type